sensor_id;sensor_type;location;lat;lon;timestamp;temperature;humidity
26053;DHT22;13826;51.186;4.450;2022-07-12T00:01:18;19.90;1.00
26053;DHT22;13826;51.186;4.450;2022-07-12T00:03:44;19.80;1.00
26053;DHT22;13826;51.186;4.450;2022-07-12T00:06:10;19.90;1.00
26053;DHT22;13826;51.186;4.450;2022-07-12T00:08:36;19.70;1.00
26053;DHT22;13826;51.186;4.450;2022-07-12T00:11:03;19.60;1.00
26053;DHT22;13826;51.186;4.450;2022-07-12T00:13:29;19.50;1.00
26053;DHT22;13826;51.186;4.450;2022-07-12T00:15:55;19.70;1.00
26053;DHT22;13826;51.186;4.450;2022-07-12T00:18:22;19.70;1.00
26053;DHT22;13826;51.186;4.450;2022-07-12T00:20:48;19.50;1.00
26053;DHT22;13826;51.186;4.450;2022-07-12T00:23:14;19.10;1.00
26053;DHT22;13826;51.186;4.450;2022-07-12T00:25:39;18.90;1.00
26053;DHT22;13826;51.186;4.450;2022-07-12T00:28:06;18.70;1.00
26053;DHT22;13826;51.186;4.450;2022-07-12T00:30:32;18.80;1.00
26053;DHT22;13826;51.186;4.450;2022-07-12T00:32:57;18.90;1.00
26053;DHT22;13826;51.186;4.450;2022-07-12T00:35:23;19.10;1.00
26053;DHT22;13826;51.186;4.450;2022-07-12T00:37:49;19.10;1.00
26053;DHT22;13826;51.186;4.450;2022-07-12T00:40:15;19.10;1.00
26053;DHT22;13826;51.186;4.450;2022-07-12T00:42:41;19.10;1.00
26053;DHT22;13826;51.186;4.450;2022-07-12T00:45:07;18.90;1.00
26053;DHT22;13826;51.186;4.450;2022-07-12T00:47:41;18.80;1.00
26053;DHT22;13826;51.186;4.450;2022-07-12T00:50:13;19.00;1.00
26053;DHT22;13826;51.186;4.450;2022-07-12T00:52:41;19.00;1.00
26053;DHT22;13826;51.186;4.450;2022-07-12T00:55:08;19.00;1.00
26053;DHT22;13826;51.186;4.450;2022-07-12T00:57:35;19.10;1.00
26053;DHT22;13826;51.186;4.450;2022-07-12T01:00:02;18.90;1.00
26053;DHT22;13826;51.186;4.450;2022-07-12T01:02:28;18.70;1.00
26053;DHT22;13826;51.186;4.450;2022-07-12T01:04:55;18.60;1.00
26053;DHT22;13826;51.186;4.450;2022-07-12T01:07:21;18.60;1.00
26053;DHT22;13826;51.186;4.450;2022-07-12T01:09:50;18.60;1.00
26053;DHT22;13826;51.186;4.450;2022-07-12T01:12:16;18.60;1.00
26053;DHT22;13826;51.186;4.450;2022-07-12T01:14:43;18.50;1.00
26053;DHT22;13826;51.186;4.450;2022-07-12T01:17:10;18.40;1.00
26053;DHT22;13826;51.186;4.450;2022-07-12T01:19:36;18.60;1.00
26053;DHT22;13826;51.186;4.450;2022-07-12T01:22:08;18.70;1.00
26053;DHT22;13826;51.186;4.450;2022-07-12T01:24:34;18.70;1.00
26053;DHT22;13826;51.186;4.450;2022-07-12T01:27:02;18.60;1.00
26053;DHT22;13826;51.186;4.450;2022-07-12T01:29:28;18.60;1.00
26053;DHT22;13826;51.186;4.450;2022-07-12T01:31:54;18.60;1.00
26053;DHT22;13826;51.186;4.450;2022-07-12T01:34:21;18.80;1.00
26053;DHT22;13826;51.186;4.450;2022-07-12T01:36:46;18.80;1.00
26053;DHT22;13826;51.186;4.450;2022-07-12T01:39:13;18.70;1.00
26053;DHT22;13826;51.186;4.450;2022-07-12T01:41:38;18.70;1.00
26053;DHT22;13826;51.186;4.450;2022-07-12T01:44:05;18.70;1.00
26053;DHT22;13826;51.186;4.450;2022-07-12T01:46:31;18.70;1.00
26053;DHT22;13826;51.186;4.450;2022-07-12T01:48:57;18.60;1.00
26053;DHT22;13826;51.186;4.450;2022-07-12T01:51:22;18.30;1.00
26053;DHT22;13826;51.186;4.450;2022-07-12T01:53:48;18.10;1.00
26053;DHT22;13826;51.186;4.450;2022-07-12T01:56:14;18.00;1.00
26053;DHT22;13826;51.186;4.450;2022-07-12T01:58:40;18.20;1.00
26053;DHT22;13826;51.186;4.450;2022-07-12T02:01:09;18.20;1.00
26053;DHT22;13826;51.186;4.450;2022-07-12T02:03:35;18.20;1.00
26053;DHT22;13826;51.186;4.450;2022-07-12T02:06:03;18.30;1.00
26053;DHT22;13826;51.186;4.450;2022-07-12T02:08:28;18.30;1.00
26053;DHT22;13826;51.186;4.450;2022-07-12T02:10:54;18.20;1.00
26053;DHT22;13826;51.186;4.450;2022-07-12T02:13:20;18.10;1.00
26053;DHT22;13826;51.186;4.450;2022-07-12T02:15:45;17.90;1.00
26053;DHT22;13826;51.186;4.450;2022-07-12T02:18:11;18.00;1.00
26053;DHT22;13826;51.186;4.450;2022-07-12T02:20:37;17.90;1.00
26053;DHT22;13826;51.186;4.450;2022-07-12T02:23:03;18.00;1.00
26053;DHT22;13826;51.186;4.450;2022-07-12T02:25:28;18.00;1.00
26053;DHT22;13826;51.186;4.450;2022-07-12T02:27:54;18.00;1.00
26053;DHT22;13826;51.186;4.450;2022-07-12T02:30:20;18.00;1.00
26053;DHT22;13826;51.186;4.450;2022-07-12T02:32:46;18.00;1.00
26053;DHT22;13826;51.186;4.450;2022-07-12T02:35:11;18.00;1.00
26053;DHT22;13826;51.186;4.450;2022-07-12T02:37:37;18.00;1.00
26053;DHT22;13826;51.186;4.450;2022-07-12T02:40:03;18.10;1.00
26053;DHT22;13826;51.186;4.450;2022-07-12T02:42:48;18.10;1.00
26053;DHT22;13826;51.186;4.450;2022-07-12T02:45:15;17.90;1.00
26053;DHT22;13826;51.186;4.450;2022-07-12T02:47:40;17.70;1.00
26053;DHT22;13826;51.186;4.450;2022-07-12T02:50:07;17.50;1.00
26053;DHT22;13826;51.186;4.450;2022-07-12T02:52:34;17.50;1.00
26053;DHT22;13826;51.186;4.450;2022-07-12T02:55:00;17.50;1.00
26053;DHT22;13826;51.186;4.450;2022-07-12T02:57:25;17.60;1.00
26053;DHT22;13826;51.186;4.450;2022-07-12T02:59:51;17.40;1.00
26053;DHT22;13826;51.186;4.450;2022-07-12T03:02:17;17.40;1.00
26053;DHT22;13826;51.186;4.450;2022-07-12T03:04:42;17.40;1.00
26053;DHT22;13826;51.186;4.450;2022-07-12T03:07:08;17.50;1.00
26053;DHT22;13826;51.186;4.450;2022-07-12T03:09:34;17.50;1.00
26053;DHT22;13826;51.186;4.450;2022-07-12T03:12:00;17.50;1.00
26053;DHT22;13826;51.186;4.450;2022-07-12T03:14:26;17.40;1.00
26053;DHT22;13826;51.186;4.450;2022-07-12T03:16:52;17.40;1.00
26053;DHT22;13826;51.186;4.450;2022-07-12T03:19:17;17.50;1.00
26053;DHT22;13826;51.186;4.450;2022-07-12T03:21:43;17.50;1.00
26053;DHT22;13826;51.186;4.450;2022-07-12T03:24:09;17.20;1.00
26053;DHT22;13826;51.186;4.450;2022-07-12T03:26:35;17.00;1.00
26053;DHT22;13826;51.186;4.450;2022-07-12T03:29:01;16.80;1.00
26053;DHT22;13826;51.186;4.450;2022-07-12T03:31:27;16.60;1.00
26053;DHT22;13826;51.186;4.450;2022-07-12T03:33:53;16.60;1.00
26053;DHT22;13826;51.186;4.450;2022-07-12T03:36:18;16.60;1.00
26053;DHT22;13826;51.186;4.450;2022-07-12T03:38:44;16.50;1.00
26053;DHT22;13826;51.186;4.450;2022-07-12T03:41:10;16.60;1.00
26053;DHT22;13826;51.186;4.450;2022-07-12T03:43:35;16.80;1.00
26053;DHT22;13826;51.186;4.450;2022-07-12T03:46:01;16.90;1.00
26053;DHT22;13826;51.186;4.450;2022-07-12T03:48:26;16.90;1.00
26053;DHT22;13826;51.186;4.450;2022-07-12T03:50:52;16.60;1.00
26053;DHT22;13826;51.186;4.450;2022-07-12T03:53:18;16.60;1.00
26053;DHT22;13826;51.186;4.450;2022-07-12T03:55:43;16.70;1.00
26053;DHT22;13826;51.186;4.450;2022-07-12T03:58:10;16.90;1.00
26053;DHT22;13826;51.186;4.450;2022-07-12T04:00:35;17.00;1.00
26053;DHT22;13826;51.186;4.450;2022-07-12T04:03:01;17.00;1.00
26053;DHT22;13826;51.186;4.450;2022-07-12T04:05:27;17.10;1.00
26053;DHT22;13826;51.186;4.450;2022-07-12T04:07:53;17.20;1.00
26053;DHT22;13826;51.186;4.450;2022-07-12T04:10:19;17.20;1.00
26053;DHT22;13826;51.186;4.450;2022-07-12T04:12:45;17.30;1.00
26053;DHT22;13826;51.186;4.450;2022-07-12T04:15:11;17.40;1.00
26053;DHT22;13826;51.186;4.450;2022-07-12T04:17:38;17.50;1.00
26053;DHT22;13826;51.186;4.450;2022-07-12T04:20:05;17.50;1.00
26053;DHT22;13826;51.186;4.450;2022-07-12T04:22:32;17.70;1.00
26053;DHT22;13826;51.186;4.450;2022-07-12T04:24:57;17.70;1.00
26053;DHT22;13826;51.186;4.450;2022-07-12T04:27:24;17.90;1.00
26053;DHT22;13826;51.186;4.450;2022-07-12T04:29:52;17.90;1.00
26053;DHT22;13826;51.186;4.450;2022-07-12T04:32:17;18.10;1.00
26053;DHT22;13826;51.186;4.450;2022-07-12T04:34:43;18.10;1.00
26053;DHT22;13826;51.186;4.450;2022-07-12T04:37:09;18.00;1.00
26053;DHT22;13826;51.186;4.450;2022-07-12T04:39:35;17.90;1.00
26053;DHT22;13826;51.186;4.450;2022-07-12T04:42:01;17.90;1.00
26053;DHT22;13826;51.186;4.450;2022-07-12T04:44:26;18.10;1.00
26053;DHT22;13826;51.186;4.450;2022-07-12T04:46:52;18.50;1.00
26053;DHT22;13826;51.186;4.450;2022-07-12T04:49:18;18.80;1.00
26053;DHT22;13826;51.186;4.450;2022-07-12T04:51:44;19.00;1.00
26053;DHT22;13826;51.186;4.450;2022-07-12T04:54:10;19.90;1.00
26053;DHT22;13826;51.186;4.450;2022-07-12T04:56:36;21.10;99.90
26053;DHT22;13826;51.186;4.450;2022-07-12T04:59:02;23.00;1.00
26053;DHT22;13826;51.186;4.450;2022-07-12T05:01:31;24.50;1.00
26053;DHT22;13826;51.186;4.450;2022-07-12T05:03:58;25.40;1.00
26053;DHT22;13826;51.186;4.450;2022-07-12T05:06:24;26.30;99.90
26053;DHT22;13826;51.186;4.450;2022-07-12T05:08:50;26.40;99.90
26053;DHT22;13826;51.186;4.450;2022-07-12T05:11:15;25.10;99.90
26053;DHT22;13826;51.186;4.450;2022-07-12T05:13:41;25.70;99.90
26053;DHT22;13826;51.186;4.450;2022-07-12T05:16:07;24.90;99.90
26053;DHT22;13826;51.186;4.450;2022-07-12T05:18:34;24.10;99.90
26053;DHT22;13826;51.186;4.450;2022-07-12T05:21:00;24.30;71.30
26053;DHT22;13826;51.186;4.450;2022-07-12T05:23:25;24.00;99.90
26053;DHT22;13826;51.186;4.450;2022-07-12T05:25:51;23.50;1.00
26053;DHT22;13826;51.186;4.450;2022-07-12T05:28:17;23.40;99.90
26053;DHT22;13826;51.186;4.450;2022-07-12T05:30:43;23.30;99.90
26053;DHT22;13826;51.186;4.450;2022-07-12T05:33:09;23.70;1.00
26053;DHT22;13826;51.186;4.450;2022-07-12T05:35:34;24.00;99.90
26053;DHT22;13826;51.186;4.450;2022-07-12T05:38:00;24.20;99.90
26053;DHT22;13826;51.186;4.450;2022-07-12T05:40:27;24.00;99.90
26053;DHT22;13826;51.186;4.450;2022-07-12T05:42:52;24.30;62.40
26053;DHT22;13826;51.186;4.450;2022-07-12T05:45:18;25.30;1.00
26053;DHT22;13826;51.186;4.450;2022-07-12T05:47:44;25.90;99.90
26053;DHT22;13826;51.186;4.450;2022-07-12T05:50:10;26.30;99.90
26053;DHT22;13826;51.186;4.450;2022-07-12T05:52:36;26.20;99.90
26053;DHT22;13826;51.186;4.450;2022-07-12T05:55:20;26.30;99.90
26053;DHT22;13826;51.186;4.450;2022-07-12T05:57:46;26.40;99.90
26053;DHT22;13826;51.186;4.450;2022-07-12T06:00:11;27.10;57.90
26053;DHT22;13826;51.186;4.450;2022-07-12T06:02:37;27.60;12.80
26053;DHT22;13826;51.186;4.450;2022-07-12T06:05:03;27.80;1.00
26053;DHT22;13826;51.186;4.450;2022-07-12T06:07:29;28.50;1.00
26053;DHT22;13826;51.186;4.450;2022-07-12T06:09:54;29.50;1.00
26053;DHT22;13826;51.186;4.450;2022-07-12T06:12:21;29.20;1.00
26053;DHT22;13826;51.186;4.450;2022-07-12T06:14:46;29.70;1.00
26053;DHT22;13826;51.186;4.450;2022-07-12T06:17:13;29.80;1.00
26053;DHT22;13826;51.186;4.450;2022-07-12T06:19:39;29.60;1.00
26053;DHT22;13826;51.186;4.450;2022-07-12T06:22:05;28.60;1.00
26053;DHT22;13826;51.186;4.450;2022-07-12T06:24:30;28.40;1.00
26053;DHT22;13826;51.186;4.450;2022-07-12T06:26:56;28.00;1.00
26053;DHT22;13826;51.186;4.450;2022-07-12T06:29:21;28.80;1.00
26053;DHT22;13826;51.186;4.450;2022-07-12T06:31:47;29.60;1.00
26053;DHT22;13826;51.186;4.450;2022-07-12T06:34:13;30.00;1.00
26053;DHT22;13826;51.186;4.450;2022-07-12T06:36:38;30.10;1.00
26053;DHT22;13826;51.186;4.450;2022-07-12T06:39:04;31.10;1.00
26053;DHT22;13826;51.186;4.450;2022-07-12T06:41:30;31.50;1.00
26053;DHT22;13826;51.186;4.450;2022-07-12T06:43:56;31.60;1.00
26053;DHT22;13826;51.186;4.450;2022-07-12T06:46:22;30.60;1.00
26053;DHT22;13826;51.186;4.450;2022-07-12T06:48:48;30.90;1.00
26053;DHT22;13826;51.186;4.450;2022-07-12T06:51:13;31.00;1.00
26053;DHT22;13826;51.186;4.450;2022-07-12T06:53:39;30.60;1.00
26053;DHT22;13826;51.186;4.450;2022-07-12T06:56:05;30.90;1.00
26053;DHT22;13826;51.186;4.450;2022-07-12T06:58:30;31.80;1.00
26053;DHT22;13826;51.186;4.450;2022-07-12T07:00:56;32.10;1.00
26053;DHT22;13826;51.186;4.450;2022-07-12T07:03:21;31.90;1.00
26053;DHT22;13826;51.186;4.450;2022-07-12T07:05:47;32.20;1.00
26053;DHT22;13826;51.186;4.450;2022-07-12T07:08:13;32.60;1.00
26053;DHT22;13826;51.186;4.450;2022-07-12T07:10:38;33.10;1.00
26053;DHT22;13826;51.186;4.450;2022-07-12T07:13:04;33.30;1.00
26053;DHT22;13826;51.186;4.450;2022-07-12T07:15:30;33.00;1.00
26053;DHT22;13826;51.186;4.450;2022-07-12T07:17:55;33.80;1.00
26053;DHT22;13826;51.186;4.450;2022-07-12T07:20:22;34.40;1.00
26053;DHT22;13826;51.186;4.450;2022-07-12T07:22:47;34.20;1.00
26053;DHT22;13826;51.186;4.450;2022-07-12T07:25:13;34.50;1.00
26053;DHT22;13826;51.186;4.450;2022-07-12T07:27:40;35.20;1.00
26053;DHT22;13826;51.186;4.450;2022-07-12T07:30:06;36.20;1.00
26053;DHT22;13826;51.186;4.450;2022-07-12T07:32:50;35.90;1.00
26053;DHT22;13826;51.186;4.450;2022-07-12T07:35:16;34.80;1.00
26053;DHT22;13826;51.186;4.450;2022-07-12T07:37:42;34.80;1.00
26053;DHT22;13826;51.186;4.450;2022-07-12T07:40:08;34.00;1.00
26053;DHT22;13826;51.186;4.450;2022-07-12T07:42:34;34.20;1.00
26053;DHT22;13826;51.186;4.450;2022-07-12T07:44:59;35.00;1.00
26053;DHT22;13826;51.186;4.450;2022-07-12T07:47:25;35.70;1.00
26053;DHT22;13826;51.186;4.450;2022-07-12T07:49:54;36.20;1.00
26053;DHT22;13826;51.186;4.450;2022-07-12T07:52:20;35.70;1.00
26053;DHT22;13826;51.186;4.450;2022-07-12T07:54:46;36.10;1.00
26053;DHT22;13826;51.186;4.450;2022-07-12T07:57:11;36.80;1.00
26053;DHT22;13826;51.186;4.450;2022-07-12T07:59:37;36.60;1.00
26053;DHT22;13826;51.186;4.450;2022-07-12T08:02:03;36.70;1.00
26053;DHT22;13826;51.186;4.450;2022-07-12T08:04:29;36.70;1.00
26053;DHT22;13826;51.186;4.450;2022-07-12T08:06:54;36.50;1.00
26053;DHT22;13826;51.186;4.450;2022-07-12T08:09:22;36.20;1.00
26053;DHT22;13826;51.186;4.450;2022-07-12T08:11:47;35.80;1.00
26053;DHT22;13826;51.186;4.450;2022-07-12T08:14:13;35.80;1.00
26053;DHT22;13826;51.186;4.450;2022-07-12T08:16:39;35.00;1.00
26053;DHT22;13826;51.186;4.450;2022-07-12T08:19:06;34.80;1.00
26053;DHT22;13826;51.186;4.450;2022-07-12T08:21:32;35.40;1.00
26053;DHT22;13826;51.186;4.450;2022-07-12T08:24:00;36.90;1.00
26053;DHT22;13826;51.186;4.450;2022-07-12T08:26:26;36.80;1.00
26053;DHT22;13826;51.186;4.450;2022-07-12T08:28:52;36.60;1.00
26053;DHT22;13826;51.186;4.450;2022-07-12T08:31:18;37.20;1.00
26053;DHT22;13826;51.186;4.450;2022-07-12T08:33:43;37.00;1.00
26053;DHT22;13826;51.186;4.450;2022-07-12T08:36:09;37.10;1.00
26053;DHT22;13826;51.186;4.450;2022-07-12T08:38:35;37.50;1.00
26053;DHT22;13826;51.186;4.450;2022-07-12T08:41:06;36.90;1.00
26053;DHT22;13826;51.186;4.450;2022-07-12T08:43:35;35.20;1.00
26053;DHT22;13826;51.186;4.450;2022-07-12T08:46:05;36.40;1.00
26053;DHT22;13826;51.186;4.450;2022-07-12T08:48:35;38.00;1.00
26053;DHT22;13826;51.186;4.450;2022-07-12T08:51:08;38.60;1.00
26053;DHT22;13826;51.186;4.450;2022-07-12T08:53:34;39.80;1.00
26053;DHT22;13826;51.186;4.450;2022-07-12T08:56:01;39.60;1.00
26053;DHT22;13826;51.186;4.450;2022-07-12T08:58:28;39.40;1.00
26053;DHT22;13826;51.186;4.450;2022-07-12T09:00:54;38.70;1.00
26053;DHT22;13826;51.186;4.450;2022-07-12T09:03:20;39.50;1.00
26053;DHT22;13826;51.186;4.450;2022-07-12T09:05:52;40.30;1.00
26053;DHT22;13826;51.186;4.450;2022-07-12T09:08:23;39.50;1.00
26053;DHT22;13826;51.186;4.450;2022-07-12T09:13:16;38.80;1.00
26053;DHT22;13826;51.186;4.450;2022-07-12T09:15:42;38.90;1.00
26053;DHT22;13826;51.186;4.450;2022-07-12T09:18:08;38.80;1.00
26053;DHT22;13826;51.186;4.450;2022-07-12T09:20:43;38.80;1.00
26053;DHT22;13826;51.186;4.450;2022-07-12T09:23:15;38.50;1.00
26053;DHT22;13826;51.186;4.450;2022-07-12T09:25:45;38.40;1.00
26053;DHT22;13826;51.186;4.450;2022-07-12T09:28:11;38.30;1.00
26053;DHT22;13826;51.186;4.450;2022-07-12T09:30:50;38.60;1.00
26053;DHT22;13826;51.186;4.450;2022-07-12T09:33:19;39.40;1.00
26053;DHT22;13826;51.186;4.450;2022-07-12T09:36:04;39.00;1.00
26053;DHT22;13826;51.186;4.450;2022-07-12T09:38:39;37.40;1.00
26053;DHT22;13826;51.186;4.450;2022-07-12T09:41:08;37.90;1.00
26053;DHT22;13826;51.186;4.450;2022-07-12T09:43:34;38.10;1.00
26053;DHT22;13826;51.186;4.450;2022-07-12T09:46:00;38.60;1.00
26053;DHT22;13826;51.186;4.450;2022-07-12T09:48:29;37.60;1.00
26053;DHT22;13826;51.186;4.450;2022-07-12T09:50:56;37.10;1.00
26053;DHT22;13826;51.186;4.450;2022-07-12T09:53:31;38.50;1.00
26053;DHT22;13826;51.186;4.450;2022-07-12T09:56:05;37.40;1.00
26053;DHT22;13826;51.186;4.450;2022-07-12T09:58:56;37.00;1.00
26053;DHT22;13826;51.186;4.450;2022-07-12T10:01:23;36.80;1.00
26053;DHT22;13826;51.186;4.450;2022-07-12T10:03:52;37.30;1.00
26053;DHT22;13826;51.186;4.450;2022-07-12T10:06:28;37.20;1.00
26053;DHT22;13826;51.186;4.450;2022-07-12T10:08:55;37.80;1.00
26053;DHT22;13826;51.186;4.450;2022-07-12T10:11:25;37.10;1.00
26053;DHT22;13826;51.186;4.450;2022-07-12T10:13:52;37.40;1.00
26053;DHT22;13826;51.186;4.450;2022-07-12T10:16:25;37.70;1.00
26053;DHT22;13826;51.186;4.450;2022-07-12T10:21:49;35.90;1.00
26053;DHT22;13826;51.186;4.450;2022-07-12T10:27:27;36.90;1.00
26053;DHT22;13826;51.186;4.450;2022-07-12T10:30:15;36.50;1.00
26053;DHT22;13826;51.186;4.450;2022-07-12T10:32:42;35.80;1.00
26053;DHT22;13826;51.186;4.450;2022-07-12T10:35:15;36.10;1.00
26053;DHT22;13826;51.186;4.450;2022-07-12T10:37:41;36.60;1.00
26053;DHT22;13826;51.186;4.450;2022-07-12T10:40:27;37.40;1.00
26053;DHT22;13826;51.186;4.450;2022-07-12T10:45:31;36.60;1.00
26053;DHT22;13826;51.186;4.450;2022-07-12T10:48:05;36.60;1.00
26053;DHT22;13826;51.186;4.450;2022-07-12T10:53:34;38.60;1.00
26053;DHT22;13826;51.186;4.450;2022-07-12T10:56:19;38.60;1.00
26053;DHT22;13826;51.186;4.450;2022-07-12T10:58:51;38.30;1.00
26053;DHT22;13826;51.186;4.450;2022-07-12T11:03:52;36.30;1.00
26053;DHT22;13826;51.186;4.450;2022-07-12T11:06:21;36.30;1.00
26053;DHT22;13826;51.186;4.450;2022-07-12T11:11:17;37.40;1.00
26053;DHT22;13826;51.186;4.450;2022-07-12T11:13:43;38.10;1.00
26053;DHT22;13826;51.186;4.450;2022-07-12T11:16:08;38.80;1.00
26053;DHT22;13826;51.186;4.450;2022-07-12T11:18:35;38.60;1.00
26053;DHT22;13826;51.186;4.450;2022-07-12T11:21:02;38.70;1.00
26053;DHT22;13826;51.186;4.450;2022-07-12T11:23:29;38.20;1.00
26053;DHT22;13826;51.186;4.450;2022-07-12T11:26:00;38.60;1.00
26053;DHT22;13826;51.186;4.450;2022-07-12T11:28:27;38.70;1.00
26053;DHT22;13826;51.186;4.450;2022-07-12T11:31:12;39.30;1.00
26053;DHT22;13826;51.186;4.450;2022-07-12T11:33:40;39.70;1.00
26053;DHT22;13826;51.186;4.450;2022-07-12T11:36:08;39.10;1.00
26053;DHT22;13826;51.186;4.450;2022-07-12T11:38:36;38.60;1.00
26053;DHT22;13826;51.186;4.450;2022-07-12T11:41:04;38.60;1.00
26053;DHT22;13826;51.186;4.450;2022-07-12T11:43:31;39.20;1.00
26053;DHT22;13826;51.186;4.450;2022-07-12T11:45:56;38.90;1.00
26053;DHT22;13826;51.186;4.450;2022-07-12T11:48:23;38.70;1.00
26053;DHT22;13826;51.186;4.450;2022-07-12T11:50:53;38.70;1.00
26053;DHT22;13826;51.186;4.450;2022-07-12T11:53:24;38.20;1.00
26053;DHT22;13826;51.186;4.450;2022-07-12T11:55:52;37.80;1.00
26053;DHT22;13826;51.186;4.450;2022-07-12T11:58:19;38.20;1.00
26053;DHT22;13826;51.186;4.450;2022-07-12T12:00:45;38.00;1.00
26053;DHT22;13826;51.186;4.450;2022-07-12T12:03:12;35.30;1.00
26053;DHT22;13826;51.186;4.450;2022-07-12T12:05:38;34.20;1.00
26053;DHT22;13826;51.186;4.450;2022-07-12T12:08:05;34.10;1.00
26053;DHT22;13826;51.186;4.450;2022-07-12T12:10:32;34.30;1.00
26053;DHT22;13826;51.186;4.450;2022-07-12T12:13:00;34.40;1.00
26053;DHT22;13826;51.186;4.450;2022-07-12T12:15:29;34.70;1.00
26053;DHT22;13826;51.186;4.450;2022-07-12T12:18:04;34.60;1.00
26053;DHT22;13826;51.186;4.450;2022-07-12T12:20:30;34.50;1.00
26053;DHT22;13826;51.186;4.450;2022-07-12T12:23:01;34.30;1.00
26053;DHT22;13826;51.186;4.450;2022-07-12T12:25:28;34.20;1.00
26053;DHT22;13826;51.186;4.450;2022-07-12T12:27:57;34.60;1.00
26053;DHT22;13826;51.186;4.450;2022-07-12T12:30:23;34.90;1.00
26053;DHT22;13826;51.186;4.450;2022-07-12T12:32:54;35.10;1.00
26053;DHT22;13826;51.186;4.450;2022-07-12T12:37:57;35.20;1.00
26053;DHT22;13826;51.186;4.450;2022-07-12T12:40:25;35.00;1.00
26053;DHT22;13826;51.186;4.450;2022-07-12T12:42:51;34.80;1.00
26053;DHT22;13826;51.186;4.450;2022-07-12T12:45:24;34.70;1.00
26053;DHT22;13826;51.186;4.450;2022-07-12T12:48:01;34.60;1.00
26053;DHT22;13826;51.186;4.450;2022-07-12T12:50:42;34.80;1.00
26053;DHT22;13826;51.186;4.450;2022-07-12T12:53:14;35.10;1.00
26053;DHT22;13826;51.186;4.450;2022-07-12T12:55:41;34.70;1.00
26053;DHT22;13826;51.186;4.450;2022-07-12T12:58:07;34.60;1.00
26053;DHT22;13826;51.186;4.450;2022-07-12T13:00:35;34.60;1.00
26053;DHT22;13826;51.186;4.450;2022-07-12T13:03:01;34.60;1.00
26053;DHT22;13826;51.186;4.450;2022-07-12T13:05:28;34.30;1.00
26053;DHT22;13826;51.186;4.450;2022-07-12T13:07:54;34.00;1.00
26053;DHT22;13826;51.186;4.450;2022-07-12T13:10:20;34.10;1.00
26053;DHT22;13826;51.186;4.450;2022-07-12T13:12:46;34.30;1.00
26053;DHT22;13826;51.186;4.450;2022-07-12T13:15:12;34.30;1.00
26053;DHT22;13826;51.186;4.450;2022-07-12T13:17:37;34.70;1.00
26053;DHT22;13826;51.186;4.450;2022-07-12T13:20:06;34.50;1.00
26053;DHT22;13826;51.186;4.450;2022-07-12T13:22:33;34.20;1.00
26053;DHT22;13826;51.186;4.450;2022-07-12T13:24:59;34.00;1.00
26053;DHT22;13826;51.186;4.450;2022-07-12T13:27:25;33.80;1.00
26053;DHT22;13826;51.186;4.450;2022-07-12T13:29:54;33.70;1.00
26053;DHT22;13826;51.186;4.450;2022-07-12T13:32:19;33.60;1.00
26053;DHT22;13826;51.186;4.450;2022-07-12T13:34:48;33.90;1.00
26053;DHT22;13826;51.186;4.450;2022-07-12T13:37:14;34.00;1.00
26053;DHT22;13826;51.186;4.450;2022-07-12T13:39:40;34.20;1.00
26053;DHT22;13826;51.186;4.450;2022-07-12T13:42:24;34.00;1.00
26053;DHT22;13826;51.186;4.450;2022-07-12T13:44:51;33.90;1.00
26053;DHT22;13826;51.186;4.450;2022-07-12T13:47:19;33.80;1.00
26053;DHT22;13826;51.186;4.450;2022-07-12T13:49:45;33.80;1.00
26053;DHT22;13826;51.186;4.450;2022-07-12T13:52:11;33.60;1.00
26053;DHT22;13826;51.186;4.450;2022-07-12T13:54:37;34.00;1.00
26053;DHT22;13826;51.186;4.450;2022-07-12T13:57:03;34.10;1.00
26053;DHT22;13826;51.186;4.450;2022-07-12T13:59:31;34.00;1.00
26053;DHT22;13826;51.186;4.450;2022-07-12T14:01:56;33.80;1.00
26053;DHT22;13826;51.186;4.450;2022-07-12T14:04:22;33.80;1.00
26053;DHT22;13826;51.186;4.450;2022-07-12T14:06:48;33.80;1.00
26053;DHT22;13826;51.186;4.450;2022-07-12T14:09:15;34.00;1.00
26053;DHT22;13826;51.186;4.450;2022-07-12T14:11:41;33.70;1.00
26053;DHT22;13826;51.186;4.450;2022-07-12T14:14:07;33.80;1.00
26053;DHT22;13826;51.186;4.450;2022-07-12T14:16:32;34.10;1.00
26053;DHT22;13826;51.186;4.450;2022-07-12T14:18:59;34.30;1.00
26053;DHT22;13826;51.186;4.450;2022-07-12T14:21:26;34.20;1.00
26053;DHT22;13826;51.186;4.450;2022-07-12T14:23:53;34.10;1.00
26053;DHT22;13826;51.186;4.450;2022-07-12T14:26:19;34.30;1.00
26053;DHT22;13826;51.186;4.450;2022-07-12T14:28:45;34.20;1.00
26053;DHT22;13826;51.186;4.450;2022-07-12T14:31:11;34.00;1.00
26053;DHT22;13826;51.186;4.450;2022-07-12T14:33:37;34.30;1.00
26053;DHT22;13826;51.186;4.450;2022-07-12T14:36:03;34.20;1.00
26053;DHT22;13826;51.186;4.450;2022-07-12T14:38:28;34.40;1.00
26053;DHT22;13826;51.186;4.450;2022-07-12T14:40:54;34.50;1.00
26053;DHT22;13826;51.186;4.450;2022-07-12T14:43:20;34.40;1.00
26053;DHT22;13826;51.186;4.450;2022-07-12T14:45:46;34.30;1.00
26053;DHT22;13826;51.186;4.450;2022-07-12T14:48:12;34.20;1.00
26053;DHT22;13826;51.186;4.450;2022-07-12T14:50:38;34.30;1.00
26053;DHT22;13826;51.186;4.450;2022-07-12T14:53:04;34.30;1.00
26053;DHT22;13826;51.186;4.450;2022-07-12T14:55:29;34.20;1.00
26053;DHT22;13826;51.186;4.450;2022-07-12T14:57:55;34.10;1.00
26053;DHT22;13826;51.186;4.450;2022-07-12T15:00:22;34.00;1.00
26053;DHT22;13826;51.186;4.450;2022-07-12T15:02:48;34.10;1.00
26053;DHT22;13826;51.186;4.450;2022-07-12T15:05:14;34.50;1.00
26053;DHT22;13826;51.186;4.450;2022-07-12T15:07:40;34.60;1.00
26053;DHT22;13826;51.186;4.450;2022-07-12T15:10:06;34.60;1.00
26053;DHT22;13826;51.186;4.450;2022-07-12T15:12:32;34.60;1.00
26053;DHT22;13826;51.186;4.450;2022-07-12T15:14:58;34.50;1.00
26053;DHT22;13826;51.186;4.450;2022-07-12T15:17:23;34.50;1.00
26053;DHT22;13826;51.186;4.450;2022-07-12T15:19:49;34.30;1.00
26053;DHT22;13826;51.186;4.450;2022-07-12T15:22:16;34.50;1.00
26053;DHT22;13826;51.186;4.450;2022-07-12T15:24:41;34.20;1.00
26053;DHT22;13826;51.186;4.450;2022-07-12T15:27:08;34.30;1.00
26053;DHT22;13826;51.186;4.450;2022-07-12T15:29:38;34.30;1.00
26053;DHT22;13826;51.186;4.450;2022-07-12T15:32:06;34.10;1.00
26053;DHT22;13826;51.186;4.450;2022-07-12T15:34:32;34.10;1.00
26053;DHT22;13826;51.186;4.450;2022-07-12T15:36:57;34.10;1.00
26053;DHT22;13826;51.186;4.450;2022-07-12T15:39:23;34.00;1.00
26053;DHT22;13826;51.186;4.450;2022-07-12T15:41:49;33.90;1.00
26053;DHT22;13826;51.186;4.450;2022-07-12T15:44:17;33.80;1.00
26053;DHT22;13826;51.186;4.450;2022-07-12T15:46:44;33.70;1.00
26053;DHT22;13826;51.186;4.450;2022-07-12T15:49:10;33.90;1.00
26053;DHT22;13826;51.186;4.450;2022-07-12T15:51:37;33.90;1.00
26053;DHT22;13826;51.186;4.450;2022-07-12T15:54:22;33.90;1.00
26053;DHT22;13826;51.186;4.450;2022-07-12T15:56:49;34.00;1.00
26053;DHT22;13826;51.186;4.450;2022-07-12T15:59:15;34.10;1.00
26053;DHT22;13826;51.186;4.450;2022-07-12T16:01:42;34.10;1.00
26053;DHT22;13826;51.186;4.450;2022-07-12T16:04:08;34.00;1.00
26053;DHT22;13826;51.186;4.450;2022-07-12T16:06:35;34.00;1.00